createdAt,value
2019-03-17T00:02:43.666Z,81.30
2019-03-17T00:05:48.039Z,81.20
2019-03-17T00:08:52.418Z,81.10
2019-03-17T00:11:56.766Z,80.90
2019-03-17T00:15:05.520Z,80.90
2019-03-17T00:18:07.074Z,80.90
2019-03-17T00:21:11.479Z,80.90
2019-03-17T00:24:15.897Z,81.10
2019-03-17T00:27:20.241Z,81.20
2019-03-17T00:30:24.613Z,81.10
2019-03-17T00:33:29.023Z,81.50
2019-03-17T00:36:33.387Z,81.10
2019-03-17T00:39:37.899Z,81.20
2019-03-17T00:42:43.087Z,80.90
2019-03-17T00:45:47.423Z,80.90
2019-03-17T00:48:51.831Z,80.90
2019-03-17T00:51:56.215Z,81.00
2019-03-17T00:55:00.633Z,81.10
2019-03-17T00:58:05.059Z,80.90
2019-03-17T01:01:09.455Z,80.90
2019-03-17T01:04:13.839Z,81.10
2019-03-17T01:07:18.203Z,81.00
2019-03-17T01:10:22.524Z,81.00
2019-03-17T01:13:26.874Z,81.10
2019-03-17T01:16:31.272Z,81.30
2019-03-17T01:19:35.929Z,81.50
2019-03-17T01:22:41.321Z,81.50
2019-03-17T01:25:45.713Z,81.20
2019-03-17T01:28:50.095Z,81.30
2019-03-17T01:31:54.370Z,81.40
2019-03-17T01:35:08.437Z,81.30
2019-03-17T01:38:04.728Z,81.50
2019-03-17T01:41:09.095Z,81.40
2019-03-17T01:44:13.426Z,81.40
2019-03-17T01:47:17.741Z,81.30
2019-03-17T01:50:22.074Z,81.50
2019-03-17T01:53:26.573Z,81.50
2019-03-17T01:56:30.978Z,81.40
2019-03-17T01:59:35.292Z,81.40
2019-03-17T02:02:39.554Z,81.40
2019-03-17T02:05:43.832Z,82.30
2019-03-17T02:08:48.109Z,81.40
2019-03-17T02:11:52.505Z,81.30
2019-03-17T02:14:56.792Z,81.40
2019-03-17T02:18:01.015Z,81.40
2019-03-17T02:21:05.313Z,81.60
2019-03-17T02:24:09.731Z,81.60
2019-03-17T02:27:14.224Z,81.70
2019-03-17T02:30:18.632Z,81.70
2019-03-17T02:33:22.976Z,81.70
2019-03-17T02:36:27.372Z,81.70
2019-03-17T02:39:31.684Z,81.70
2019-03-17T02:42:35.925Z,82.20
2019-03-17T02:45:40.247Z,81.50
2019-03-17T02:48:44.555Z,82.40
2019-03-17T02:51:48.925Z,81.40
2019-03-17T02:54:53.295Z,81.50
2019-03-17T02:57:57.625Z,81.50
2019-03-17T03:01:01.928Z,81.50
2019-03-17T03:04:06.251Z,81.40
2019-03-17T03:07:10.560Z,81.50
2019-03-17T03:10:14.894Z,81.70
2019-03-17T03:13:19.266Z,81.50
2019-03-17T03:16:23.516Z,81.70
2019-03-17T03:19:27.889Z,81.80
2019-03-17T03:22:32.484Z,81.70
2019-03-17T03:25:36.788Z,81.60
2019-03-17T03:28:41.187Z,82.10
2019-03-17T03:31:45.498Z,81.70
2019-03-17T03:34:49.862Z,81.70
2019-03-17T03:37:54.117Z,81.70
2019-03-17T03:40:58.457Z,81.90
2019-03-17T03:44:02.835Z,82.10
2019-03-17T03:47:07.085Z,82.40
2019-03-17T03:50:11.618Z,82.70
2019-03-17T03:53:15.961Z,82.60
2019-03-17T03:56:20.425Z,82.50
2019-03-17T03:59:24.698Z,82.50
2019-03-17T04:02:29.076Z,82.50
2019-03-17T04:05:33.399Z,82.60
2019-03-17T04:08:37.681Z,82.60
2019-03-17T04:11:41.947Z,82.70
2019-03-17T04:14:46.842Z,82.80
2019-03-17T04:17:51.181Z,82.70
2019-03-17T04:20:55.548Z,82.60
2019-03-17T04:23:59.895Z,82.50
2019-03-17T04:27:04.280Z,82.40
2019-03-17T04:30:08.696Z,82.30
2019-03-17T04:33:13.124Z,82.10
2019-03-17T04:36:17.381Z,82.20
2019-03-17T04:39:21.684Z,82.20
2019-03-17T04:42:26.012Z,82.10
2019-03-17T04:45:30.244Z,81.90
2019-03-17T04:48:34.438Z,81.90
2019-03-17T04:51:38.723Z,81.80
2019-03-17T04:54:43.014Z,81.90
2019-03-17T04:57:47.304Z,81.80
2019-03-17T05:00:51.565Z,81.60
2019-03-17T05:03:55.871Z,81.40
2019-03-17T05:07:00.216Z,81.10
2019-03-17T05:10:06.220Z,80.90
2019-03-17T05:13:10.492Z,80.60
2019-03-17T05:16:14.921Z,80.80
2019-03-17T05:19:19.127Z,80.30
2019-03-17T05:22:23.508Z,79.60
2019-03-17T05:25:27.909Z,80.20
2019-03-17T05:28:32.384Z,80.10
2019-03-17T05:31:36.801Z,80.20
2019-03-17T05:34:41.164Z,80.40
2019-03-17T05:37:45.508Z,80.30
2019-03-17T05:40:49.875Z,80.40
2019-03-17T05:43:54.214Z,80.50
2019-03-17T05:46:58.553Z,80.30
2019-03-17T05:50:02.903Z,80.50
2019-03-17T05:53:07.278Z,80.50
2019-03-17T05:56:11.654Z,80.80
2019-03-17T05:59:16.024Z,81.10
2019-03-17T06:02:20.347Z,81.10
2019-03-17T06:05:24.657Z,81.40
2019-03-17T06:08:29.010Z,81.30
2019-03-17T06:11:33.374Z,81.50
2019-03-17T06:14:37.760Z,81.80
2019-03-17T06:17:42.305Z,81.80
2019-03-17T06:20:46.628Z,81.80
2019-03-17T06:23:51.010Z,82.00
2019-03-17T06:26:55.300Z,82.30
2019-03-17T06:29:59.685Z,82.50
2019-03-17T06:33:04.138Z,82.80
2019-03-17T06:36:08.518Z,82.80
2019-03-17T06:39:12.927Z,83.00
2019-03-17T06:42:17.293Z,83.30
2019-03-17T06:45:21.615Z,83.90
2019-03-17T06:48:26.041Z,83.80
2019-03-17T06:51:30.396Z,83.90
2019-03-17T06:54:34.692Z,83.80
2019-03-17T06:57:39.200Z,84.80
2019-03-17T07:00:43.610Z,84.30
2019-03-17T07:03:48.045Z,84.30
2019-03-17T07:06:52.514Z,84.30
2019-03-17T07:09:56.881Z,84.20
2019-03-17T07:13:01.343Z,84.30
2019-03-17T07:16:05.755Z,84.00
2019-03-17T07:19:10.068Z,84.10
2019-03-17T07:22:14.257Z,84.30
2019-03-17T07:25:18.630Z,84.40
2019-03-17T07:28:23.056Z,84.30
2019-03-17T07:31:27.522Z,84.60
2019-03-17T07:34:32.099Z,85.40
2019-03-17T07:37:36.423Z,85.20
2019-03-17T07:40:40.816Z,85.40
2019-03-17T07:43:45.208Z,84.90
2019-03-17T07:46:49.582Z,84.90
2019-03-17T07:49:53.985Z,84.90
2019-03-17T07:52:58.502Z,84.70
2019-03-17T07:56:03.041Z,84.80
2019-03-17T07:59:07.409Z,85.60
2019-03-17T08:02:11.822Z,85.00
2019-03-17T08:05:16.250Z,84.70
2019-03-17T08:08:20.734Z,84.60
2019-03-17T08:11:25.009Z,83.60
2019-03-17T08:14:29.388Z,83.10
2019-03-17T08:17:33.626Z,82.50
2019-03-17T08:20:38.033Z,81.80
2019-03-17T08:23:42.390Z,81.70
2019-03-17T08:26:46.774Z,81.20
2019-03-17T08:29:52.014Z,80.80
2019-03-17T08:32:56.431Z,80.30
2019-03-17T08:36:00.755Z,79.90
2019-03-17T08:39:08.008Z,80.00
2019-03-17T08:42:12.404Z,79.50
2019-03-17T08:45:18.423Z,78.60
2019-03-17T08:48:22.694Z,78.20
2019-03-17T08:51:27.113Z,77.80
2019-03-17T08:54:31.522Z,77.30
2019-03-17T08:57:35.927Z,76.60
2019-03-17T09:00:40.300Z,76.00
2019-03-17T09:03:44.664Z,75.90
2019-03-17T09:06:48.989Z,75.70
2019-03-17T09:09:53.309Z,75.80
2019-03-17T09:12:57.656Z,73.70
2019-03-17T09:16:01.957Z,73.30
2019-03-17T09:19:06.256Z,72.90
2019-03-17T09:22:10.660Z,73.40
2019-03-17T09:25:15.031Z,72.50
2019-03-17T09:28:22.111Z,72.50
2019-03-17T09:31:26.386Z,70.90
2019-03-17T09:34:30.910Z,70.00
2019-03-17T09:37:35.437Z,69.80
2019-03-17T09:40:39.894Z,68.70
2019-03-17T09:43:44.236Z,66.60
2019-03-17T09:46:48.704Z,65.10
2019-03-17T09:49:53.126Z,62.10
2019-03-17T09:52:57.528Z,61.10
2019-03-17T09:56:02.010Z,59.80
2019-03-17T09:59:06.415Z,57.20
2019-03-17T10:02:10.777Z,56.00
2019-03-17T10:05:15.268Z,55.60
2019-03-17T10:08:19.850Z,55.00
2019-03-17T10:11:24.230Z,53.90
2019-03-17T10:14:28.548Z,54.30
2019-03-17T10:17:32.885Z,54.80
2019-03-17T10:20:37.147Z,54.30
2019-03-17T10:23:41.525Z,52.40
2019-03-17T10:26:45.934Z,52.10
2019-03-17T10:29:50.351Z,51.10
2019-03-17T10:32:55.348Z,51.60
2019-03-17T10:35:59.732Z,50.80
2019-03-17T10:39:12.497Z,50.30
2019-03-17T10:42:12.547Z,48.60
2019-03-17T10:45:17.199Z,40.10
2019-03-17T10:48:21.601Z,43.60
2019-03-17T10:51:25.878Z,43.50
2019-03-17T10:54:30.179Z,43.90
2019-03-17T10:57:34.517Z,42.60
2019-03-17T11:00:38.909Z,43.50
2019-03-17T11:03:43.196Z,42.50
2019-03-17T11:06:47.555Z,44.20
2019-03-17T11:09:51.909Z,43.40
2019-03-17T11:12:56.298Z,42.40
2019-03-17T11:16:00.674Z,41.00
2019-03-17T11:19:05.073Z,34.10
2019-03-17T11:22:09.730Z,32.80
2019-03-17T11:25:14.476Z,30.70
2019-03-17T11:28:18.847Z,30.00
2019-03-17T11:31:23.226Z,29.60
2019-03-17T11:34:27.581Z,28.70
2019-03-17T11:37:31.901Z,32.40
2019-03-17T11:40:36.326Z,34.60
2019-03-17T11:43:40.688Z,35.50
2019-03-17T11:46:44.987Z,36.00
2019-03-17T11:49:49.354Z,37.30
2019-03-17T11:52:53.684Z,37.70
2019-03-17T11:55:58.079Z,38.00
2019-03-17T11:59:02.416Z,39.20
2019-03-17T12:02:06.808Z,39.10
2019-03-17T12:05:11.330Z,38.80
2019-03-17T12:08:15.734Z,39.10
2019-03-17T12:11:21.195Z,38.50
2019-03-17T12:14:25.567Z,38.00
2019-03-17T12:17:29.866Z,30.90
2019-03-17T12:20:34.240Z,34.10
2019-03-17T12:23:38.603Z,34.80
2019-03-17T12:26:42.926Z,35.80
2019-03-17T12:29:47.273Z,34.60
2019-03-17T12:32:53.148Z,34.90
2019-03-17T12:35:57.538Z,34.80
2019-03-17T12:39:01.896Z,35.70
2019-03-17T12:42:06.218Z,35.20
2019-03-17T12:45:10.588Z,35.40
2019-03-17T12:48:14.938Z,35.60
2019-03-17T12:51:19.347Z,35.30
2019-03-17T12:54:23.756Z,36.10
2019-03-17T12:57:28.121Z,35.00
2019-03-17T13:00:32.477Z,34.90
2019-03-17T13:03:38.613Z,35.30
2019-03-17T13:06:42.754Z,35.40
2019-03-17T13:09:46.991Z,35.80
2019-03-17T13:12:51.328Z,35.60
2019-03-17T13:15:55.689Z,35.50
2019-03-17T13:18:59.966Z,34.90
2019-03-17T13:22:04.348Z,35.20
2019-03-17T13:25:09.417Z,35.40
2019-03-17T13:28:13.792Z,35.80
2019-03-17T13:31:20.436Z,35.40
2019-03-17T13:34:25.121Z,34.20
2019-03-17T13:37:29.460Z,34.80
2019-03-17T13:40:33.940Z,34.30
2019-03-17T13:43:39.784Z,34.50
2019-03-17T13:46:44.153Z,34.40
2019-03-17T13:49:48.497Z,34.90
2019-03-17T13:52:52.806Z,34.60
2019-03-17T13:55:57.204Z,34.10
2019-03-17T13:59:01.556Z,33.50
2019-03-17T14:02:05.847Z,32.70
2019-03-17T14:05:10.240Z,32.20
2019-03-17T14:08:14.612Z,32.70
2019-03-17T14:11:19.030Z,32.70
2019-03-17T14:21:08.948Z,32.40
2019-03-17T14:24:13.316Z,32.60
2019-03-17T14:27:17.874Z,33.10
2019-03-17T14:30:22.252Z,33.00
2019-03-17T14:33:26.683Z,32.00
2019-03-17T14:36:31.062Z,31.60
2019-03-17T14:39:35.832Z,32.00
2019-03-17T14:42:41.814Z,32.30
2019-03-17T14:45:46.597Z,31.50
2019-03-17T14:48:51.707Z,30.90
2019-03-17T14:51:56.533Z,31.60
2019-03-17T14:55:01.197Z,31.50
2019-03-17T14:58:05.840Z,31.80
2019-03-17T15:01:10.262Z,31.80
2019-03-17T15:04:14.851Z,31.40
2019-03-17T15:07:19.223Z,30.80
2019-03-17T15:10:32.537Z,30.80
2019-03-17T15:13:36.955Z,30.30
2019-03-17T15:16:41.415Z,30.20
2019-03-17T15:19:45.862Z,29.60
2019-03-17T15:22:50.327Z,29.30
2019-03-17T15:25:54.641Z,29.30
2019-03-17T15:29:01.579Z,29.30
2019-03-17T15:32:05.963Z,28.90
2019-03-17T15:35:11.084Z,28.90
2019-03-17T15:38:15.446Z,28.30
2019-03-17T15:41:19.886Z,28.30
2019-03-17T15:44:24.282Z,28.60
2019-03-17T15:47:28.686Z,28.90
2019-03-17T15:50:33.066Z,29.20
2019-03-17T15:53:37.502Z,29.20
2019-03-17T15:56:41.995Z,28.90
2019-03-17T15:59:48.587Z,29.30
2019-03-17T16:02:52.755Z,29.30
2019-03-17T16:05:57.219Z,29.30
2019-03-17T16:09:01.720Z,29.50
2019-03-17T16:12:08.168Z,29.40
2019-03-17T16:15:14.414Z,29.60
2019-03-17T16:18:18.797Z,29.80
2019-03-17T16:21:23.167Z,29.30
2019-03-17T16:24:27.599Z,29.10
2019-03-17T16:27:31.919Z,29.20
2019-03-17T16:30:36.343Z,29.90
2019-03-17T16:33:40.713Z,30.30
2019-03-17T16:36:45.123Z,30.70
2019-03-17T16:39:49.618Z,32.10
2019-03-17T16:42:54.327Z,32.10
2019-03-17T16:45:58.704Z,32.60
2019-03-17T16:49:04.093Z,33.10
2019-03-17T16:52:08.456Z,33.60
2019-03-17T16:55:13.103Z,34.10
2019-03-17T16:58:17.516Z,34.50
2019-03-17T17:01:22.304Z,35.00
2019-03-17T17:04:26.700Z,35.60
2019-03-17T17:07:31.112Z,36.10
2019-03-17T17:10:38.182Z,36.90
2019-03-17T17:13:41.961Z,37.60
2019-03-17T17:16:48.261Z,38.10
2019-03-17T17:19:53.043Z,39.70
2019-03-17T17:22:58.938Z,40.50
2019-03-17T17:26:03.397Z,41.30
2019-03-17T17:29:07.890Z,41.40
2019-03-17T17:32:12.420Z,41.90
2019-03-17T17:35:16.814Z,42.20
2019-03-17T17:38:21.240Z,42.60
2019-03-17T17:41:25.653Z,42.80
2019-03-17T17:44:30.125Z,43.30
2019-03-17T17:47:34.533Z,43.60
2019-03-17T17:50:39.343Z,44.10
2019-03-17T17:53:43.804Z,44.40
2019-03-17T17:57:07.280Z,44.80
2019-03-17T18:00:15.007Z,45.10
2019-03-17T18:03:19.445Z,45.40
2019-03-17T18:06:23.925Z,45.70
2019-03-17T18:09:28.423Z,46.00
2019-03-17T18:12:32.829Z,47.00
2019-03-17T18:15:37.291Z,46.60
2019-03-17T18:18:41.952Z,46.90
2019-03-17T18:21:46.688Z,47.00
2019-03-17T18:24:51.723Z,47.20
2019-03-17T18:27:56.359Z,47.30
2019-03-17T18:31:01.193Z,47.60
2019-03-17T18:34:05.609Z,47.70
2019-03-17T18:37:10.255Z,48.00
2019-03-17T18:40:15.321Z,48.10
2019-03-17T18:43:19.890Z,48.30
2019-03-17T18:46:24.367Z,48.40
2019-03-17T18:49:29.710Z,48.80
2019-03-17T18:52:34.193Z,48.90
2019-03-17T18:55:38.648Z,49.00
2019-03-17T18:58:45.209Z,49.10
2019-03-17T19:01:54.838Z,49.50
2019-03-17T19:04:59.263Z,49.80
2019-03-17T19:08:03.675Z,50.00
2019-03-17T19:11:08.100Z,50.20
2019-03-17T19:14:12.456Z,50.40
2019-03-17T19:17:17.038Z,50.60
2019-03-17T19:20:21.419Z,51.70
2019-03-17T19:23:25.817Z,52.10
2019-03-17T19:26:30.265Z,52.30
2019-03-17T19:29:34.840Z,52.60
2019-03-17T19:32:39.223Z,52.90
2019-03-17T19:35:43.652Z,53.80
2019-03-17T19:38:48.791Z,53.20
2019-03-17T19:41:53.173Z,53.40
2019-03-17T19:44:57.571Z,53.50
2019-03-17T19:48:02.036Z,53.80
2019-03-17T19:51:06.586Z,53.80
2019-03-17T19:54:11.167Z,54.00
2019-03-17T19:57:15.775Z,54.10
2019-03-17T20:00:20.255Z,54.30
2019-03-17T20:03:24.693Z,54.40
2019-03-17T20:06:29.092Z,54.60
2019-03-17T20:09:33.487Z,54.70
2019-03-17T20:12:37.993Z,55.00
2019-03-17T20:15:42.422Z,54.90
2019-03-17T20:18:46.898Z,55.00
2019-03-17T20:21:52.417Z,55.10
2019-03-17T20:24:56.819Z,55.40
2019-03-17T20:28:01.219Z,55.50
2019-03-17T20:31:05.660Z,55.60
2019-03-17T20:34:09.985Z,55.80
2019-03-17T20:37:14.459Z,56.10
2019-03-17T20:40:18.843Z,56.40
2019-03-17T20:43:34.040Z,56.50
2019-03-17T20:46:29.594Z,56.70
2019-03-17T20:49:34.030Z,57.00
2019-03-17T20:52:39.292Z,57.00
2019-03-17T20:55:43.910Z,57.20
2019-03-17T20:58:55.447Z,57.40
2019-03-17T21:02:00.114Z,57.50
2019-03-17T21:05:04.960Z,57.60
2019-03-17T21:08:09.393Z,57.60
2019-03-17T21:11:14.152Z,57.70
2019-03-17T21:14:18.594Z,57.90
2019-03-17T21:17:22.977Z,57.80
2019-03-17T21:20:27.407Z,57.90
2019-03-17T21:23:31.818Z,58.10
2019-03-17T21:26:36.303Z,58.20
2019-03-17T21:29:40.683Z,59.20
2019-03-17T21:32:46.881Z,58.70
2019-03-17T21:35:51.312Z,58.70
2019-03-17T21:38:55.729Z,58.90
2019-03-17T21:42:01.577Z,59.00
2019-03-17T21:45:06.572Z,59.10
2019-03-17T21:48:11.015Z,58.90
2019-03-17T21:51:15.373Z,59.10
2019-03-17T21:54:20.864Z,59.00
2019-03-17T21:57:25.290Z,59.10
2019-03-17T22:00:29.678Z,59.10
2019-03-17T22:03:34.112Z,59.30
2019-03-17T22:06:38.516Z,59.40
2019-03-17T22:09:42.933Z,59.30
2019-03-17T22:12:47.306Z,59.30
2019-03-17T22:15:51.900Z,59.30
2019-03-17T22:18:56.301Z,59.50
2019-03-17T22:22:00.836Z,59.70
2019-03-17T22:25:05.718Z,59.90
2019-03-17T22:28:10.138Z,60.00
2019-03-17T22:31:14.516Z,59.90
2019-03-17T22:34:18.921Z,60.00
2019-03-17T22:37:23.362Z,60.10
2019-03-17T22:40:27.787Z,60.20
2019-03-17T22:43:32.156Z,60.40
2019-03-17T22:46:36.625Z,60.50
2019-03-17T22:49:40.895Z,60.60
2019-03-17T22:52:45.304Z,60.50
2019-03-17T22:55:49.732Z,60.60
2019-03-17T22:58:54.054Z,60.60
2019-03-17T23:01:58.476Z,60.60
2019-03-17T23:05:02.875Z,60.80
2019-03-17T23:08:07.313Z,60.80
2019-03-17T23:11:11.710Z,61.10
2019-03-17T23:14:16.120Z,61.70
2019-03-17T23:17:20.480Z,61.80
2019-03-17T23:20:24.852Z,62.40
2019-03-17T23:23:29.239Z,62.50
2019-03-17T23:26:33.611Z,63.30
2019-03-17T23:29:37.954Z,63.40
2019-03-17T23:32:42.314Z,63.90
2019-03-17T23:35:46.752Z,65.40
2019-03-17T23:38:51.103Z,66.40
2019-03-17T23:41:55.483Z,67.50
2019-03-17T23:44:59.784Z,68.30
2019-03-17T23:48:04.170Z,66.80
2019-03-17T23:51:08.551Z,67.50
2019-03-17T23:54:12.886Z,68.30
2019-03-17T23:57:17.324Z,67.50
